Time;durP1;ratioP1;P1;durP2;ratioP2;P2;SDS_P1;SDS_P2;PMS_P1;PMS_P2;Temp;Humidity;BMP_temperature;BMP_pressure;BME280_temperature;BME280_humidity;BME280_pressure;Samples;Min_cycle;Max_cycle;Signal;HPM_P1;HPM_P2
2021/09/02 00:00:59;;;;;;;3.33;2.80;;;;;;;24.22;51.39;99798.28;2068592;28;20020;-46
2021/09/02 00:02:00;;;;;;;2.93;2.63;;;;;;;24.22;51.42;99792.78;2077136;28;20092;-47
2021/09/02 00:03:01;;;;;;;4.03;3.47;;;;;;;24.22;51.39;99792.78;2072618;28;20032;-46
2021/09/02 00:04:01;;;;;;;4.13;2.87;;;;;;;24.22;51.49;99784.53;2076520;28;20088;-46
2021/09/02 00:05:02;;;;;;;3.33;2.57;;;;;;;24.21;51.30;99780.06;2075571;28;20031;-46
2021/09/02 00:06:03;;;;;;;3.47;3.00;;;;;;;24.21;51.33;99782.81;2072960;28;20033;-46
2021/09/02 00:07:03;;;;;;;4.20;3.60;;;;;;;24.21;51.37;99774.56;2079332;28;20259;-46
2021/09/02 00:08:04;;;;;;;3.63;3.17;;;;;;;24.20;51.32;99767.34;2068509;28;20144;-47
2021/09/02 00:09:05;;;;;;;3.80;2.83;;;;;;;24.20;51.39;99767.34;2068428;28;20029;-46
2021/09/02 00:10:06;;;;;;;3.30;2.80;;;;;;;24.21;51.33;99774.56;2075747;28;20032;-46
2021/09/02 00:11:06;;;;;;;3.20;2.73;;;;;;;24.22;51.28;99773.50;2075076;28;20648;-46
2021/09/02 00:12:07;;;;;;;3.53;3.23;;;;;;;24.22;51.27;99776.25;2074833;28;20120;-46
2021/09/02 00:13:07;;;;;;;3.03;2.70;;;;;;;24.21;51.31;99780.06;2071263;28;20395;-46
2021/09/02 00:14:08;;;;;;;3.10;2.80;;;;;;;24.22;51.34;99786.44;2075807;28;20025;-46
2021/09/02 00:15:09;;;;;;;3.70;3.40;;;;;;;24.22;51.19;99786.44;2076312;28;20017;-46
2021/09/02 00:16:09;;;;;;;3.13;2.70;;;;;;;24.22;51.36;99789.19;2076918;28;20108;-46
2021/09/02 00:17:10;;;;;;;3.63;2.97;;;;;;;24.21;51.11;99785.59;2073747;28;20029;-46
2021/09/02 00:18:10;;;;;;;3.40;3.03;;;;;;;24.21;51.30;99788.34;2073747;28;20056;-46
2021/09/02 00:19:11;;;;;;;3.10;2.80;;;;;;;24.20;51.20;99786.59;2076740;28;20423;-46
2021/09/02 00:20:12;;;;;;;3.50;3.20;;;;;;;24.21;51.15;99793.84;2077056;28;20017;-46
2021/09/02 00:21:13;;;;;;;3.35;3.05;;;;;;;24.20;51.22;99792.13;2073961;28;20517;-46
2021/09/02 00:22:13;;;;;;;3.57;2.83;;;;;;;24.20;51.23;99778.34;2074886;28;20112;-46
2021/09/02 00:23:14;;;;;;;3.23;2.70;;;;;;;24.19;51.23;99779.41;2075810;28;20039;-46
2021/09/02 00:24:15;;;;;;;3.47;3.07;;;;;;;24.20;51.23;99778.34;2075220;28;20044;-46
2021/09/02 00:25:15;;;;;;;3.47;3.00;;;;;;;24.20;51.32;99778.34;2077195;28;20029;-46
2021/09/02 00:26:16;;;;;;;3.17;2.80;;;;;;;24.20;51.28;99778.34;2075217;28;20021;-46
2021/09/02 00:27:16;;;;;;;3.73;2.80;;;;;;;24.20;51.28;99789.38;2076876;28;20490;-46
2021/09/02 00:28:17;;;;;;;2.53;2.33;;;;;;;24.21;51.04;99796.59;2084193;28;20025;-46
2021/09/02 00:29:17;;;;;;;4.60;2.80;;;;;;;24.20;51.20;99788.50;2085633;28;20627;-46
2021/09/02 00:30:18;;;;;;;3.37;3.03;;;;;;;24.19;51.20;99793.19;2075354;28;20306;-46
2021/09/02 00:31:18;;;;;;;3.00;2.70;;;;;;;24.20;51.23;99785.75;2073759;28;20029;-47
2021/09/02 00:32:19;;;;;;;3.50;3.03;;;;;;;24.20;51.21;99789.38;2077627;28;20025;-47
2021/09/02 00:33:19;;;;;;;4.20;2.50;;;;;;;24.19;51.06;99790.41;2076163;28;20082;-46
2021/09/02 00:34:20;;;;;;;3.43;2.90;;;;;;;24.20;51.23;99783.84;2075855;28;20661;-46
2021/09/02 00:35:20;;;;;;;3.33;3.00;;;;;;;24.19;51.15;99782.16;2072890;28;20287;-46
2021/09/02 00:36:21;;;;;;;3.30;3.00;;;;;;;24.19;51.20;99779.41;2074246;28;20056;-46
2021/09/02 00:37:22;;;;;;;3.80;3.40;;;;;;;24.20;51.23;99777.50;2075209;28;20114;-46
2021/09/02 00:38:22;;;;;;;3.67;3.10;;;;;;;24.19;51.28;99782.16;2074180;28;21953;-46
2021/09/02 00:39:22;;;;;;;3.60;2.97;;;;;;;24.19;51.28;99782.16;2076766;28;20801;-46
2021/09/02 00:40:24;;;;;;;3.23;2.87;;;;;;;24.18;51.24;99781.31;2078033;28;20406;-46
2021/09/02 00:41:25;;;;;;;4.25;2.95;;;;;;;24.19;51.22;99773.91;2075477;28;20029;-46
2021/09/02 00:42:25;;;;;;;2.97;2.67;;;;;;;24.19;51.14;99771.16;2075987;28;20156;-46
2021/09/02 00:43:26;;;;;;;3.47;3.03;;;;;;;24.19;51.22;99771.16;2069528;28;20463;-46
2021/09/02 00:44:44;;;;;;;3.93;2.80;;;;;;;24.18;51.16;99769.44;2070651;28;20464;-46
2021/09/02 00:45:45;;;;;;;3.78;2.65;;;;;;;24.17;51.23;99774.06;2076200;28;20271;-46
2021/09/02 00:46:45;;;;;;;3.10;2.80;;;;;;;24.17;51.24;99765.81;2074930;28;20119;-46
2021/09/02 00:47:46;;;;;;;3.93;3.47;;;;;;;24.17;51.34;99759.47;2076297;28;20021;-46
2021/09/02 00:48:48;;;;;;;4.07;3.63;;;;;;;24.18;51.15;99763.94;2071463;28;20036;-46
2021/09/02 00:49:49;;;;;;;2.90;2.63;;;;;;;24.17;51.08;99765.81;2076057;28;20249;-46
2021/09/02 00:50:49;;;;;;;2.95;2.65;;;;;;;24.18;51.27;99761.19;2071353;28;20028;-46
2021/09/02 00:51:50;;;;;;;3.17;2.67;;;;;;;24.18;51.26;99758.44;2074828;28;20041;-46
2021/09/02 00:52:51;;;;;;;3.40;3.03;;;;;;;24.18;51.39;99758.44;2073991;28;20082;-46
2021/09/02 00:53:54;;;;;;;4.43;3.10;;;;;;;24.17;51.32;99751.19;2076483;28;20836;-46
2021/09/02 00:54:59;;;;;;;3.67;2.70;;;;;;;24.17;51.21;99756.72;2074510;28;20029;-46
2021/09/02 00:56:00;;;;;;;2.90;2.58;;;;;;;24.18;51.31;99758.44;2073024;28;20033;-47
2021/09/02 00:57:00;;;;;;;6.05;3.00;;;;;;;24.17;51.29;99754.81;2077720;28;20100;-46
2021/09/02 00:58:01;;;;;;;3.77;3.37;;;;;;;24.17;51.12;99753.94;2076665;28;20023;-46
2021/09/02 00:59:02;;;;;;;3.65;3.15;;;;;;;24.18;51.24;99755.69;2075308;28;20029;-46
2021/09/02 01:00:12;;;;;;;2.97;2.67;;;;;;;24.16;51.32;99750.34;2075838;28;20044;-46
2021/09/02 01:01:14;;;;;;;4.35;2.65;;;;;;;24.17;51.38;99752.03;2069929;28;20041;-46
2021/09/02 01:02:15;;;;;;;3.13;2.67;;;;;;;24.17;51.35;99745.69;2074317;28;20036;-46
2021/09/02 01:03:20;;;;;;;3.78;2.90;;;;;;;24.17;51.37;99751.19;2076184;28;20025;-46
2021/09/02 01:04:22;;;;;;;2.90;2.60;;;;;;;24.17;51.03;99745.69;2074285;28;20020;-46
2021/09/02 01:05:22;;;;;;;3.08;2.75;;;;;;;24.16;51.17;99744.00;2075355;28;20021;-46
2021/09/02 01:06:23;;;;;;;3.03;2.73;;;;;;;24.17;51.26;99738.28;2076551;28;20109;-46
2021/09/02 01:07:27;;;;;;;4.90;2.77;;;;;;;24.17;51.21;99740.19;2075042;28;20048;-46
2021/09/02 01:08:29;;;;;;;3.10;2.80;;;;;;;24.17;51.40;99740.19;2074654;28;20033;-46
2021/09/02 01:09:31;;;;;;;3.45;2.83;;;;;;;24.17;51.24;99734.69;2072102;28;20367;-46
2021/09/02 01:10:32;;;;;;;3.28;2.80;;;;;;;24.17;51.14;99740.19;2073776;28;20044;-46
2021/09/02 01:11:33;;;;;;;3.47;2.87;;;;;;;24.16;51.25;99744.84;2075370;28;20052;-46
2021/09/02 01:12:37;;;;;;;3.47;2.60;;;;;;;24.17;51.18;99734.69;2075368;28;20021;-46
2021/09/02 01:13:37;;;;;;;3.85;2.78;;;;;;;24.17;51.21;99737.44;2072468;28;20029;-47
2021/09/02 01:14:38;;;;;;;3.37;3.07;;;;;;;24.16;51.21;99738.50;2077116;28;20029;-46
2021/09/02 01:15:38;;;;;;;3.07;2.77;;;;;;;24.16;51.20;99727.47;2076308;28;20029;-46
2021/09/02 01:16:39;;;;;;;3.13;2.77;;;;;;;24.17;51.16;99729.16;2073572;28;20955;-46
2021/09/02 01:17:49;;;;;;;3.53;3.23;;;;;;;24.16;51.31;99716.47;2076360;28;20106;-46
2021/09/02 01:18:50;;;;;;;3.22;2.92;;;;;;;24.15;51.42;99726.59;2074967;28;20037;-46
2021/09/02 01:19:52;;;;;;;2.93;2.60;;;;;;;24.16;51.20;99722.81;2075897;28;20029;-46
2021/09/02 01:20:52;;;;;;;3.85;3.25;;;;;;;24.16;51.24;99722.81;2074300;28;20472;-46
2021/09/02 01:21:53;;;;;;;3.37;2.73;;;;;;;24.16;51.18;99724.72;2075555;28;20025;-46
2021/09/02 01:22:57;;;;;;;3.20;2.90;;;;;;;24.16;51.25;99722.81;2072025;28;20029;-46
2021/09/02 01:23:58;;;;;;;4.18;3.28;;;;;;;24.17;51.05;99729.16;2073090;28;20047;-46
2021/09/02 01:25:04;;;;;;;2.90;2.60;;;;;;;24.16;51.12;99730.22;2072749;28;20045;-46
2021/09/02 01:26:19;;;;;;;3.25;2.42;;;;;;;24.14;51.32;99735.06;2072572;28;20108;-46
2021/09/02 01:27:20;;;;;;;3.15;2.67;;;;;;;24.15;51.18;99734.00;2076220;28;20164;-46
2021/09/02 01:28:20;;;;;;;3.03;2.53;;;;;;;24.17;51.37;99740.19;2075369;28;20407;-46
2021/09/02 01:29:23;;;;;;;3.30;3.00;;;;;;;24.15;51.24;99737.59;2076610;28;20032;-46
2021/09/02 01:30:24;;;;;;;3.13;2.60;;;;;;;24.16;51.42;99744.00;2072380;28;20060;-46
2021/09/02 01:31:24;;;;;;;3.72;2.80;;;;;;;24.16;51.33;99741.25;2075770;28;20017;-47
2021/09/02 01:32:30;;;;;;;3.57;2.93;;;;;;;24.16;51.19;99732.97;2077665;28;20435;-46
2021/09/02 01:33:30;;;;;;;3.40;2.70;;;;;;;24.16;51.33;99744.00;2074597;28;20028;-47
2021/09/02 01:34:31;;;;;;;3.30;2.70;;;;;;;24.16;51.28;99736.59;2076310;28;20507;-46
2021/09/02 01:35:32;;;;;;;3.53;2.67;;;;;;;24.16;51.19;99741.25;2076901;28;20039;-46
2021/09/02 01:36:32;;;;;;;2.80;2.57;;;;;;;24.15;51.19;99743.13;2075486;28;20025;-46
2021/09/02 01:37:44;;;;;;;2.60;2.33;;;;;;;24.14;51.28;99732.31;2076035;28;20236;-46
2021/09/02 01:38:44;;;;;;;3.30;2.78;;;;;;;24.15;51.36;99742.28;2068263;28;20033;-46
2021/09/02 01:39:48;;;;;;;4.00;3.13;;;;;;;24.15;51.35;99736.75;2073144;28;20323;-46
2021/09/02 01:40:48;;;;;;;2.92;2.60;;;;;;;24.15;51.17;99736.75;2071467;28;20029;-46
2021/09/02 01:41:49;;;;;;;3.10;2.80;;;;;;;24.14;51.25;99735.91;2072594;28;20025;-46
2021/09/02 01:42:50;;;;;;;3.60;2.80;;;;;;;24.15;51.13;99739.50;2076233;28;20927;-46
2021/09/02 01:43:51;;;;;;;3.70;2.97;;;;;;;24.16;51.16;99746.75;2075821;28;20392;-46
2021/09/02 01:44:51;;;;;;;3.67;3.22;;;;;;;24.16;51.43;99744.00;2076190;28;20048;-46
2021/09/02 01:45:52;;;;;;;2.87;2.57;;;;;;;24.16;51.27;99749.50;2075528;28;20537;-47
2021/09/02 01:46:52;;;;;;;2.70;2.50;;;;;;;24.16;51.11;99744.00;2075589;28;20478;-46
2021/09/02 01:48:00;;;;;;;3.03;2.60;;;;;;;24.14;51.49;99740.56;2075969;28;20056;-47
2021/09/02 01:49:01;;;;;;;3.35;3.05;;;;;;;24.14;51.32;99751.59;2076470;28;20021;-46
2021/09/02 01:50:22;;;;;;;3.03;2.73;;;;;;;24.13;51.49;99749.88;2074547;28;20323;-46
2021/09/02 01:51:22;;;;;;;3.22;2.80;;;;;;;24.14;51.34;99746.94;2076341;28;20428;-46
2021/09/02 01:52:22;;;;;;;3.03;2.73;;;;;;;24.15;51.24;99747.78;2075301;28;20559;-46
2021/09/02 01:53:23;;;;;;;3.47;2.97;;;;;;;24.14;51.33;99746.09;2075384;28;20055;-46
2021/09/02 01:54:23;;;;;;;3.23;2.73;;;;;;;24.14;51.27;99740.56;2075205;28;20029;-46
2021/09/02 01:55:25;;;;;;;3.33;3.03;;;;;;;24.15;51.39;99747.78;2076700;28;20016;-46
2021/09/02 01:56:25;;;;;;;;;;;;;;;24.10;51.48;99736.47;2074783;28;20406;-46
2021/09/02 01:57:26;;;;;;;3.72;2.80;;;;;;;24.10;51.52;99739.25;2072958;28;19908;-46
2021/09/02 01:58:27;;;;;;;3.10;2.60;;;;;;;24.10;51.36;99740.09;2076058;28;20060;-46
2021/09/02 01:59:27;;;;;;;2.33;2.13;;;;;;;24.12;51.47;99742.66;2074636;28;20024;-46
2021/09/02 02:00:28;;;;;;;2.57;2.33;;;;;;;24.12;51.50;99742.66;2073792;28;20116;-46
2021/09/02 02:01:28;;;;;;;3.03;2.67;;;;;;;24.12;51.43;99738.00;2076034;28;20479;-46
2021/09/02 02:02:28;;;;;;;3.33;2.67;;;;;;;24.12;51.51;99732.50;2078353;28;20108;-46
2021/09/02 02:03:29;;;;;;;3.00;2.70;;;;;;;24.13;51.34;99733.34;2077146;28;20021;-46
2021/09/02 02:04:29;;;;;;;3.17;2.87;;;;;;;24.12;51.49;99728.91;2071116;28;20033;-46
2021/09/02 02:05:30;;;;;;;3.17;2.77;;;;;;;24.12;51.53;99734.41;2074315;28;21026;-46
2021/09/02 02:06:31;;;;;;;4.00;3.08;;;;;;;24.11;51.35;99730.81;2074355;28;20139;-46
2021/09/02 02:07:32;;;;;;;3.27;2.97;;;;;;;24.13;51.37;99736.09;2074973;28;20440;-46
2021/09/02 02:08:33;;;;;;;3.35;3.00;;;;;;;24.12;51.37;99737.16;2076522;28;20039;-46
2021/09/02 02:09:33;;;;;;;3.70;3.10;;;;;;;24.11;51.37;99735.47;2072274;28;20029;-46
2021/09/02 02:10:34;;;;;;;3.10;2.80;;;;;;;24.13;51.34;99730.59;2074232;28;20473;-46
2021/09/02 02:11:34;;;;;;;3.27;2.93;;;;;;;24.13;51.52;99730.59;2069426;28;20108;-46
2021/09/02 02:12:35;;;;;;;3.70;3.03;;;;;;;24.13;51.37;99733.34;2072866;28;20364;-46
2021/09/02 02:13:35;;;;;;;2.70;2.50;;;;;;;24.13;51.33;99731.47;2074139;28;20147;-46
2021/09/02 02:14:36;;;;;;;3.27;2.97;;;;;;;24.13;51.41;99730.59;2072939;28;20039;-46
2021/09/02 02:15:36;;;;;;;2.70;2.50;;;;;;;24.13;51.36;99733.34;2074884;28;20021;-46
2021/09/02 02:16:38;;;;;;;2.87;2.60;;;;;;;24.13;51.52;99738.84;2075252;28;20673;-46
2021/09/02 02:17:39;;;;;;;3.10;2.80;;;;;;;24.12;51.36;99737.16;2074917;28;20278;-46
2021/09/02 02:18:40;;;;;;;3.55;2.80;;;;;;;24.11;51.38;99736.31;2073970;28;20029;-46
2021/09/02 02:19:40;;;;;;;3.20;2.50;;;;;;;24.12;51.37;99734.41;2074047;28;20029;-46
2021/09/02 02:20:41;;;;;;;2.63;2.43;;;;;;;24.12;51.36;99742.66;2076513;28;20127;-46
2021/09/02 02:21:41;;;;;;;3.20;2.80;;;;;;;24.13;51.29;99738.84;2074460;28;20021;-46
2021/09/02 02:22:43;;;;;;;3.13;2.80;;;;;;;24.13;51.40;99744.34;2074909;28;20025;-46
2021/09/02 02:23:44;;;;;;;;;;;;;;;24.07;51.55;99734.97;2075560;28;20025;-46
2021/09/02 02:24:44;;;;;;;3.63;3.17;;;;;;;24.09;51.59;99743.06;2072303;28;19928;-47
2021/09/02 02:25:44;;;;;;;3.03;2.70;;;;;;;24.09;51.46;99738.38;2075424;28;20052;-46
2021/09/02 02:26:45;;;;;;;2.83;2.53;;;;;;;24.11;51.38;99741.81;2073438;28;20675;-46
2021/09/02 02:27:46;;;;;;;3.10;2.80;;;;;;;24.11;51.45;99746.47;2074114;28;20464;-46
2021/09/02 02:28:46;;;;;;;3.67;3.20;;;;;;;24.12;51.44;99737.16;2074369;28;20076;-47
2021/09/02 02:29:47;;;;;;;4.53;3.03;;;;;;;24.10;51.47;99740.09;2074443;28;20052;-46
2021/09/02 02:30:47;;;;;;;3.80;2.93;;;;;;;24.10;51.45;99734.59;2076273;28;20276;-48
2021/09/02 02:31:48;;;;;;;3.30;3.00;;;;;;;24.11;51.38;99735.47;2076452;28;20032;-46
2021/09/02 02:32:49;;;;;;;2.97;2.67;;;;;;;24.12;51.35;99739.91;2074811;28;20362;-46
2021/09/02 02:33:49;;;;;;;4.23;2.57;;;;;;;24.12;51.46;99739.91;2071857;28;20049;-46
2021/09/02 02:34:50;;;;;;;3.53;2.97;;;;;;;24.12;51.46;99742.66;2070329;28;20040;-46
2021/09/02 02:35:50;;;;;;;2.57;2.37;;;;;;;24.11;51.51;99732.72;2071640;28;20136;-46
2021/09/02 02:36:51;;;;;;;3.70;2.67;;;;;;;24.12;51.55;99731.66;2073625;28;20383;-46
2021/09/02 02:37:51;;;;;;;3.23;2.73;;;;;;;24.12;51.47;99737.16;2075182;28;20021;-46
2021/09/02 02:38:52;;;;;;;2.50;2.30;;;;;;;24.11;51.40;99724.44;2074052;28;20035;-46
2021/09/02 02:39:52;;;;;;;2.90;2.60;;;;;;;24.11;51.44;99724.44;2073752;28;20027;-46
2021/09/02 02:40:53;;;;;;;3.67;3.33;;;;;;;24.12;51.46;99726.13;2076107;28;20103;-47
2021/09/02 02:41:53;;;;;;;3.00;2.60;;;;;;;24.12;51.45;99728.91;2072160;28;20052;-46
2021/09/02 02:42:53;;;;;;;4.00;2.60;;;;;;;24.12;51.51;99715.13;2074945;28;20071;-46
2021/09/02 02:43:54;;;;;;;3.13;2.53;;;;;;;24.10;51.44;99722.72;2073174;28;20035;-46
2021/09/02 02:44:54;;;;;;;3.10;2.63;;;;;;;24.11;51.47;99713.44;2077106;28;20024;-46
2021/09/02 02:45:58;;;;;;;2.60;2.40;;;;;;;24.11;51.52;99718.94;2071356;28;20118;-46
2021/09/02 02:46:59;;;;;;;3.00;2.45;;;;;;;24.11;51.54;99724.44;2080651;28;20093;-47
2021/09/02 02:47:59;;;;;;;2.90;2.60;;;;;;;24.11;51.51;99725.28;2075247;28;20017;-46
2021/09/02 02:49:00;;;;;;;3.10;2.70;;;;;;;24.10;51.61;99722.72;2074814;28;20317;-46
2021/09/02 02:50:02;;;;;;;3.33;2.60;;;;;;;24.11;51.66;99727.19;2074913;28;20023;-46
2021/09/02 02:51:03;;;;;;;3.80;3.00;;;;;;;24.11;51.77;99724.44;2074593;28;20565;-46
2021/09/02 02:52:05;;;;;;;2.80;2.60;;;;;;;24.12;51.62;99728.91;2076923;28;20024;-46
2021/09/02 02:53:05;;;;;;;3.10;2.80;;;;;;;24.11;51.60;99729.94;2073979;28;20180;-46
2021/09/02 02:54:06;;;;;;;2.93;2.63;;;;;;;24.10;51.51;99729.06;2075329;28;20112;-46
2021/09/02 02:55:07;;;;;;;3.40;2.77;;;;;;;24.11;51.61;99730.81;2070264;28;20017;-46
2021/09/02 02:56:07;;;;;;;2.78;2.45;;;;;;;24.12;51.71;99732.50;2073589;28;20021;-46
2021/09/02 02:57:08;;;;;;;3.00;2.70;;;;;;;24.11;51.62;99740.97;2069484;28;20414;-46
2021/09/02 02:58:08;;;;;;;3.57;3.23;;;;;;;24.10;51.58;99740.09;2074506;28;20025;-46
2021/09/02 02:59:09;;;;;;;3.20;2.90;;;;;;;24.10;51.56;99733.72;2073112;28;20029;-46
2021/09/02 03:00:10;;;;;;;2.63;2.43;;;;;;;24.12;51.64;99738.00;2073135;28;20213;-46
2021/09/02 03:01:12;;;;;;;3.40;2.95;;;;;;;24.11;51.59;99732.72;2075875;28;20722;-46
2021/09/02 03:02:12;;;;;;;3.72;2.97;;;;;;;24.10;51.61;99729.06;2076106;28;20580;-46
2021/09/02 03:03:13;;;;;;;3.40;2.80;;;;;;;24.10;51.54;99723.56;2072989;28;20029;-46
2021/09/02 03:04:13;;;;;;;3.07;2.77;;;;;;;24.10;51.55;99728.22;2073891;28;20023;-46
2021/09/02 03:05:14;;;;;;;3.23;2.93;;;;;;;24.10;51.52;99722.72;2074846;28;20109;-46
2021/09/02 03:06:14;;;;;;;3.00;2.40;;;;;;;24.09;51.61;99723.78;2073201;28;20388;-47
2021/09/02 03:07:15;;;;;;;4.03;3.03;;;;;;;24.08;51.54;99719.28;2075236;28;20029;-46
2021/09/02 03:08:15;;;;;;;2.53;2.23;;;;;;;24.08;51.66;99714.66;2072139;28;20059;-46
2021/09/02 03:09:16;;;;;;;2.93;2.63;;;;;;;24.09;51.69;99710.00;2071871;28;20361;-46
2021/09/02 03:10:17;;;;;;;3.30;2.97;;;;;;;24.08;51.70;99708.28;2074871;28;20051;-46
2021/09/02 03:11:17;;;;;;;2.70;2.37;;;;;;;24.09;51.76;99701.75;2071524;28;20063;-47
2021/09/02 03:12:18;;;;;;;3.00;2.50;;;;;;;24.08;51.71;99702.78;2071525;28;20472;-46
2021/09/02 03:13:18;;;;;;;3.20;2.90;;;;;;;24.07;51.65;99695.56;2075297;28;20028;-46
2021/09/02 03:14:18;;;;;;;2.97;2.67;;;;;;;24.09;51.62;99701.75;2075995;28;20056;-46
2021/09/02 03:15:19;;;;;;;3.07;2.63;;;;;;;24.08;51.61;99698.16;2076773;28;20029;-46
2021/09/02 03:16:20;;;;;;;3.63;2.97;;;;;;;24.08;51.76;99697.28;2075512;28;20021;-46
2021/09/02 03:17:20;;;;;;;3.40;3.10;;;;;;;24.08;51.61;99691.75;2076194;28;20519;-46
2021/09/02 03:18:21;;;;;;;3.07;2.50;;;;;;;24.07;51.60;99688.16;2074514;28;20455;-46
2021/09/02 03:19:21;;;;;;;2.67;2.47;;;;;;;24.08;51.55;99692.66;2075599;28;20016;-46
2021/09/02 03:20:21;;;;;;;2.80;2.57;;;;;;;24.09;51.75;99693.50;2074834;28;20163;-46
2021/09/02 03:21:22;;;;;;;3.47;2.83;;;;;;;24.08;51.64;99697.28;2074128;28;20033;-46
2021/09/02 03:22:22;;;;;;;2.90;2.50;;;;;;;24.08;51.70;99697.28;2075443;28;20025;-46
2021/09/02 03:23:23;;;;;;;3.57;3.13;;;;;;;24.09;51.67;99693.50;2075002;28;20136;-46
2021/09/02 03:24:23;;;;;;;2.83;2.30;;;;;;;24.09;51.74;99699.84;2076496;28;20049;-46
2021/09/02 03:25:24;;;;;;;3.90;2.40;;;;;;;24.09;51.85;99693.50;2075657;28;20063;-46
2021/09/02 03:26:24;;;;;;;2.97;2.50;;;;;;;24.08;51.64;99681.63;2075267;28;20435;-47
2021/09/02 03:27:24;;;;;;;3.33;2.37;;;;;;;24.08;51.67;99686.25;2074739;28;20028;-46
2021/09/02 03:28:25;;;;;;;2.77;2.40;;;;;;;24.08;51.67;99687.13;2070444;28;20124;-46
2021/09/02 03:29:25;;;;;;;2.63;2.40;;;;;;;24.08;51.68;99686.25;2073895;28;20440;-46
2021/09/02 03:30:26;;;;;;;2.80;2.60;;;;;;;24.08;51.64;99694.53;2075091;28;20040;-46
2021/09/02 03:31:26;;;;;;;3.23;2.90;;;;;;;24.08;51.64;99692.66;2075962;28;20470;-46
2021/09/02 03:32:27;;;;;;;2.60;2.20;;;;;;;24.09;51.67;99685.22;2074839;28;20032;-46
2021/09/02 03:33:28;;;;;;;3.00;2.70;;;;;;;24.09;51.49;99685.22;2073034;28;20051;-46
2021/09/02 03:34:28;;;;;;;2.90;2.60;;;;;;;24.08;51.70;99681.63;2070704;28;20432;-46
2021/09/02 03:35:29;;;;;;;2.70;2.50;;;;;;;24.08;51.68;99680.75;2075515;28;20013;-46
2021/09/02 03:36:30;;;;;;;2.80;2.53;;;;;;;24.07;51.70;99674.41;2076947;28;20045;-46
2021/09/02 03:37:31;;;;;;;3.13;2.83;;;;;;;24.07;51.67;99679.06;2071221;28;20063;-46
2021/09/02 03:38:32;;;;;;;2.60;2.35;;;;;;;24.07;51.56;99674.41;2073800;28;20021;-46
2021/09/02 03:39:32;;;;;;;3.27;2.97;;;;;;;24.07;51.64;99674.41;2074519;28;20086;-46
2021/09/02 03:40:34;;;;;;;3.17;2.87;;;;;;;24.08;51.64;99680.75;2076380;28;20202;-45
2021/09/02 03:41:34;;;;;;;2.63;2.25;;;;;;;24.08;51.64;99675.25;2076618;28;20506;-46
2021/09/02 03:42:35;;;;;;;2.83;2.60;;;;;;;24.07;51.69;99668.03;2076702;28;20044;-46
2021/09/02 03:43:35;;;;;;;3.80;2.70;;;;;;;24.07;51.67;99668.88;2077157;28;20519;-46
2021/09/02 03:44:36;;;;;;;3.23;2.40;;;;;;;24.08;51.74;99664.22;2076234;28;20021;-47
2021/09/02 03:45:36;;;;;;;2.40;2.20;;;;;;;24.09;51.67;99668.72;2076348;28;20064;-47
2021/09/02 03:46:37;;;;;;;3.20;2.87;;;;;;;24.08;51.67;99664.22;2072141;28;20482;-47
2021/09/02 03:47:37;;;;;;;3.67;2.87;;;;;;;24.08;51.64;99676.13;2070295;28;20047;-46
2021/09/02 03:48:38;;;;;;;3.47;2.43;;;;;;;24.08;51.69;99670.63;2075846;28;20082;-47
2021/09/02 03:49:38;;;;;;;2.87;2.40;;;;;;;24.07;51.71;99670.78;2074245;28;20567;-46
2021/09/02 03:50:39;;;;;;;3.10;2.20;;;;;;;24.08;51.68;99669.75;2076984;28;20450;-46
2021/09/02 03:51:39;;;;;;;2.60;2.33;;;;;;;24.07;51.69;99663.38;2076897;28;20278;-46
2021/09/02 03:52:40;;;;;;;2.60;2.40;;;;;;;24.07;51.72;99662.53;2075402;28;20115;-46
2021/09/02 03:53:40;;;;;;;2.80;2.60;;;;;;;24.07;51.85;99673.56;2077730;28;20450;-46
2021/09/02 03:54:41;;;;;;;2.90;2.27;;;;;;;24.08;51.76;99675.25;2075504;28;20116;-47
2021/09/02 03:55:41;;;;;;;3.03;2.73;;;;;;;24.09;51.83;99663.19;2074373;28;20155;-46
2021/09/02 03:56:41;;;;;;;2.50;2.30;;;;;;;24.07;51.73;99679.91;2077507;28;20066;-46
2021/09/02 03:57:42;;;;;;;2.80;2.50;;;;;;;24.07;51.69;99668.03;2076900;28;20013;-46
2021/09/02 03:58:42;;;;;;;3.00;2.57;;;;;;;24.07;51.69;99679.06;2077149;28;20032;-46
2021/09/02 03:59:43;;;;;;;2.90;2.60;;;;;;;24.08;51.75;99669.75;2076415;28;20032;-46
2021/09/02 04:00:43;;;;;;;3.13;2.33;;;;;;;24.07;51.53;99674.41;2076341;28;20464;-46
2021/09/02 04:01:44;;;;;;;2.57;2.23;;;;;;;24.07;51.65;99662.53;2076594;28;20154;-46
2021/09/02 04:02:45;;;;;;;3.20;2.83;;;;;;;24.06;51.55;99655.34;2072299;28;20496;-46
2021/09/02 04:03:45;;;;;;;3.13;2.50;;;;;;;24.07;51.72;99659.78;2072643;28;20048;-47
2021/09/02 04:04:46;;;;;;;3.03;2.53;;;;;;;24.07;51.65;99662.53;2075578;28;20025;-46
2021/09/02 04:05:46;;;;;;;2.73;2.43;;;;;;;24.07;51.62;99654.28;2076076;28;20024;-46
2021/09/02 04:06:47;;;;;;;2.97;2.30;;;;;;;24.05;51.54;99654.47;2078021;28;20339;-46
2021/09/02 04:07:47;;;;;;;2.77;2.50;;;;;;;24.06;51.69;99650.69;2075734;28;20029;-46
2021/09/02 04:08:48;;;;;;;2.77;2.20;;;;;;;24.07;51.65;99648.78;2074700;28;20013;-46
2021/09/02 04:09:48;;;;;;;2.60;2.23;;;;;;;24.06;51.68;99649.84;2073601;28;20048;-46
2021/09/02 04:10:49;;;;;;;2.37;2.10;;;;;;;24.06;51.78;99653.44;2072276;28;20035;-46
2021/09/02 04:11:49;;;;;;;2.67;2.47;;;;;;;24.06;51.64;99644.31;2073557;28;20029;-46
2021/09/02 04:12:50;;;;;;;3.57;2.80;;;;;;;24.07;51.75;99646.03;2072994;28;20408;-46
2021/09/02 04:13:50;;;;;;;2.43;2.23;;;;;;;24.07;51.69;99651.53;2076541;28;20111;-46
2021/09/02 04:14:51;;;;;;;3.07;2.77;;;;;;;24.06;51.69;99660.84;2075035;28;20021;-46
2021/09/02 04:15:51;;;;;;;3.37;2.60;;;;;;;24.05;51.69;99654.47;2077905;28;20248;-46
2021/09/02 04:16:55;;;;;;;4.07;2.80;;;;;;;24.06;51.73;99652.59;2075820;28;20437;-46
2021/09/02 04:17:55;;;;;;;3.28;2.47;;;;;;;24.06;51.69;99655.34;2076214;28;20051;-46
2021/09/02 04:18:55;;;;;;;2.40;2.20;;;;;;;24.07;51.70;99654.28;2076468;28;20021;-47
2021/09/02 04:19:56;;;;;;;3.30;2.53;;;;;;;24.07;51.76;99662.53;2074772;28;20116;-46
2021/09/02 04:20:57;;;;;;;2.80;2.50;;;;;;;24.06;51.63;99652.59;2076975;28;20099;-46
2021/09/02 04:21:58;;;;;;;2.78;2.58;;;;;;;24.06;51.58;99663.59;2074202;28;20557;-46
2021/09/02 04:22:58;;;;;;;2.97;2.67;;;;;;;24.06;51.64;99661.69;2075741;28;20036;-46
2021/09/02 04:23:59;;;;;;;3.13;2.80;;;;;;;24.06;51.68;99660.84;2076123;28;20025;-46
2021/09/02 04:24:59;;;;;;;2.70;2.40;;;;;;;24.07;51.77;99665.28;2074711;28;20128;-46
2021/09/02 04:26:01;;;;;;;2.37;2.17;;;;;;;24.06;51.78;99655.34;2078563;28;20032;-46
2021/09/02 04:27:02;;;;;;;2.70;2.50;;;;;;;24.06;51.68;99669.09;2075974;28;20106;-46
2021/09/02 04:28:03;;;;;;;2.80;2.17;;;;;;;24.05;51.51;99665.47;2074972;28;20716;-46
2021/09/02 04:29:03;;;;;;;2.87;2.47;;;;;;;24.06;51.64;99666.34;2075434;28;20027;-46
2021/09/02 04:30:05;;;;;;;2.60;2.40;;;;;;;24.05;51.70;99667.38;2077347;28;20562;-46
2021/09/02 04:31:06;;;;;;;3.40;2.22;;;;;;;24.06;51.78;99664.44;2077297;28;20879;-46
2021/09/02 04:32:07;;;;;;;2.80;2.50;;;;;;;24.07;51.73;99665.28;2077746;28;20060;-46
2021/09/02 04:33:08;;;;;;;2.67;2.20;;;;;;;24.07;51.70;99673.56;2075778;28;20096;-46
2021/09/02 04:34:08;;;;;;;3.07;2.40;;;;;;;24.05;51.72;99670.97;2076997;28;20029;-46
2021/09/02 04:35:10;;;;;;;2.30;2.07;;;;;;;24.06;51.62;99677.38;2075032;28;20031;-46
2021/09/02 04:36:11;;;;;;;2.65;2.45;;;;;;;24.06;51.59;99671.84;2075862;28;20172;-46
2021/09/02 04:37:11;;;;;;;3.40;2.50;;;;;;;24.06;51.78;99671.84;2076627;28;20224;-46
2021/09/02 04:38:12;;;;;;;2.60;2.17;;;;;;;24.07;51.76;99673.56;2074587;28;20043;-46
2021/09/02 04:39:12;;;;;;;3.40;2.47;;;;;;;24.05;51.57;99670.13;2076290;28;20345;-46
2021/09/02 04:40:15;;;;;;;3.20;2.70;;;;;;;24.05;51.71;99670.13;2076229;28;20017;-46
2021/09/02 04:41:15;;;;;;;2.85;2.55;;;;;;;24.05;51.71;99679.25;2074801;28;20029;-46
2021/09/02 04:42:16;;;;;;;2.47;2.27;;;;;;;24.05;51.71;99670.13;2074539;28;20108;-46
2021/09/02 04:43:17;;;;;;;2.57;2.37;;;;;;;24.05;51.75;99675.63;2077094;28;20360;-46
2021/09/02 04:44:18;;;;;;;2.47;2.28;;;;;;;24.05;51.64;99664.63;2074377;28;20075;-46
2021/09/02 04:45:18;;;;;;;2.70;2.30;;;;;;;24.06;51.73;99682.88;2070473;28;20480;-46
2021/09/02 04:46:20;;;;;;;3.13;2.83;;;;;;;24.05;51.64;99687.50;2072957;28;20097;-46
2021/09/02 04:47:20;;;;;;;2.63;2.35;;;;;;;24.06;51.70;99677.38;2072341;28;20316;-46
2021/09/02 04:48:22;;;;;;;2.83;2.57;;;;;;;24.07;51.75;99687.31;2076168;28;20120;-47